FFT3862 KSLC-KDEN
Flight info
| Callsign | FFT3862 |
|---|---|
| Flight time | N/A |
| Altitude | 35000 |
| Route | RUGGD3 PERTY KAMPR LONGZ4 |
| Aircraft | A20N/M-SDE2E3FGHIRWXY/LB1 |
Departure
| Time | 2026-05-06 15:49 |
|---|---|
| Airport | Salt Lake City International Airport (KSLC) |
Arrival
| Time | N/A |
|---|---|
| Airport | Denver International Airport (KDEN) |
| Time | Latitude | Longitude | Altitude | Speed | Heading |
|---|---|---|---|---|---|
| 2026-05-06 15:31 | 40.78919 | -111.99134 | 4231 ft | 0 kts | 175° |
| 2026-05-06 15:39 | 40.78943 | -111.99139 | 4231 ft | 4 kts | 163° |
| 2026-05-06 15:39 | 40.78968 | -111.99152 | 4231 ft | 4 kts | 147° |
| 2026-05-06 15:40 | 40.78989 | -111.99174 | 4231 ft | 4 kts | 123° |
| 2026-05-06 15:40 | 40.78996 | -111.99201 | 4231 ft | 1 kts | 84° |
| 2026-05-06 15:42 | 40.78998 | -111.99183 | 4231 ft | 8 kts | 84° |
| 2026-05-06 15:43 | 40.79005 | -111.99083 | 4231 ft | 13 kts | 85° |
| 2026-05-06 15:43 | 40.79013 | -111.98950 | 4231 ft | 16 kts | 85° |
| 2026-05-06 15:43 | 40.79024 | -111.98798 | 4231 ft | 18 kts | 84° |
| 2026-05-06 15:43 | 40.79038 | -111.98631 | 4230 ft | 19 kts | 83° |
| 2026-05-06 15:44 | 40.79052 | -111.98451 | 4231 ft | 20 kts | 84° |
| 2026-05-06 15:44 | 40.79068 | -111.98260 | 4230 ft | 21 kts | 83° |
| 2026-05-06 15:44 | 40.79085 | -111.98059 | 4231 ft | 23 kts | 84° |
| 2026-05-06 15:44 | 40.79082 | -111.97877 | 4230 ft | 17 kts | 97° |
| 2026-05-06 15:45 | 40.79070 | -111.97735 | 4231 ft | 9 kts | 135° |
| 2026-05-06 15:45 | 40.79003 | -111.97697 | 4231 ft | 14 kts | 173° |
| 2026-05-06 15:45 | 40.78865 | -111.97696 | 4231 ft | 23 kts | 179° |
| 2026-05-06 15:45 | 40.78701 | -111.97676 | 4231 ft | 24 kts | 173° |
| 2026-05-06 15:46 | 40.78529 | -111.97657 | 4230 ft | 25 kts | 175° |
| 2026-05-06 15:46 | 40.78354 | -111.97637 | 4230 ft | 24 kts | 175° |
| 2026-05-06 15:46 | 40.78184 | -111.97616 | 4230 ft | 24 kts | 175° |
| 2026-05-06 15:46 | 40.78010 | -111.97594 | 4230 ft | 26 kts | 173° |
| 2026-05-06 15:47 | 40.77846 | -111.97528 | 4230 ft | 23 kts | 168° |
| 2026-05-06 15:47 | 40.77681 | -111.97508 | 4231 ft | 24 kts | 174° |
| 2026-05-06 15:47 | 40.77519 | -111.97489 | 4231 ft | 18 kts | 175° |
| 2026-05-06 15:47 | 40.77449 | -111.97428 | 4231 ft | 13 kts | 88° |
| 2026-05-06 15:48 | 40.77507 | -111.97334 | 4230 ft | 14 kts | 36° |
| 2026-05-06 15:48 | 40.77612 | -111.97333 | 4230 ft | 25 kts | 354° |
| 2026-05-06 15:48 | 40.78027 | -111.97381 | 4231 ft | 91 kts | 355° |
| 2026-05-06 15:48 | 40.78839 | -111.97475 | 4232 ft | 140 kts | 355° |
| 2026-05-06 15:49 | 40.79912 | -111.97602 | 4521 ft | 155 kts | 354° |
| 2026-05-06 15:49 | 40.80970 | -111.97746 | 5181 ft | 155 kts | 353° |
| 2026-05-06 15:49 | 40.82090 | -111.97934 | 5608 ft | 167 kts | 354° |
| 2026-05-06 15:49 | 40.83196 | -111.98085 | 5812 ft | 152 kts | 357° |
| 2026-05-06 15:50 | 40.84229 | -111.98189 | 5835 ft | 155 kts | 358° |
| 2026-05-06 15:50 | 40.84641 | -111.98223 | 5982 ft | 162 kts | 358° |
| 2026-05-06 15:51 | 40.85698 | -111.98313 | 6502 ft | 175 kts | 358° |
| 2026-05-06 15:51 | 40.85842 | -111.98324 | 6573 ft | 176 kts | 358° |
| 2026-05-06 15:52 | 40.86232 | -111.98353 | 6769 ft | 179 kts | 358° |
| 2026-05-06 15:52 | 40.87505 | -111.98475 | 7386 ft | 191 kts | 356° |
| 2026-05-06 15:52 | 40.88889 | -111.98635 | 7845 ft | 211 kts | 353° |
| 2026-05-06 15:52 | 40.90420 | -111.98942 | 8279 ft | 234 kts | 351° |
| 2026-05-06 15:53 | 40.92098 | -111.99310 | 8821 ft | 254 kts | 352° |
| 2026-05-06 15:53 | 40.93888 | -111.99680 | 9597 ft | 263 kts | 352° |
| 2026-05-06 15:53 | 40.95702 | -112.00028 | 10523 ft | 268 kts | 353° |
| 2026-05-06 15:53 | 40.97621 | -112.00378 | 10973 ft | 289 kts | 353° |
| 2026-05-06 15:54 | 40.99684 | -112.00744 | 11430 ft | 307 kts | 353° |
| 2026-05-06 15:54 | 41.01820 | -112.00847 | 12300 ft | 309 kts | 7° |
| 2026-05-06 15:54 | 41.03875 | -112.00042 | 13270 ft | 312 kts | 24° |
| 2026-05-06 15:54 | 41.05631 | -111.98369 | 14110 ft | 322 kts | 41° |
| 2026-05-06 15:55 | 41.06909 | -111.95871 | 14901 ft | 335 kts | 58° |
| 2026-05-06 15:55 | 41.07908 | -111.93014 | 15669 ft | 339 kts | 59° |
| 2026-05-06 15:55 | 41.08894 | -111.90163 | 16436 ft | 341 kts | 59° |
| 2026-05-06 15:55 | 41.09886 | -111.87295 | 17219 ft | 343 kts | 58° |
| 2026-05-06 15:56 | 41.10880 | -111.84447 | 17960 ft | 347 kts | 58° |
| 2026-05-06 15:56 | 41.11786 | -111.81452 | 18684 ft | 358 kts | 68° |
| 2026-05-06 15:56 | 41.12091 | -111.78112 | 19358 ft | 375 kts | 83° |
| 2026-05-06 15:56 | 41.11626 | -111.74610 | 19934 ft | 397 kts | 101° |
| 2026-05-06 15:57 | 41.10355 | -111.71274 | 20530 ft | 417 kts | 118° |
| 2026-05-06 15:57 | 41.08556 | -111.68205 | 21112 ft | 426 kts | 123° |
| 2026-05-06 15:57 | 41.06634 | -111.65197 | 21662 ft | 430 kts | 124° |
| 2026-05-06 15:57 | 41.04691 | -111.62171 | 22219 ft | 433 kts | 123° |
| 2026-05-06 15:58 | 41.02745 | -111.59093 | 22788 ft | 437 kts | 123° |
| 2026-05-06 15:58 | 41.00797 | -111.55975 | 23395 ft | 441 kts | 123° |
| 2026-05-06 15:58 | 40.98843 | -111.52819 | 23924 ft | 445 kts | 123° |
| 2026-05-06 15:58 | 40.96880 | -111.49639 | 24423 ft | 448 kts | 122° |
| 2026-05-06 15:59 | 40.94900 | -111.46430 | 24923 ft | 451 kts | 122° |
| 2026-05-06 15:59 | 40.92950 | -111.43177 | 25404 ft | 450 kts | 117° |
| 2026-05-06 15:59 | 40.91423 | -111.39612 | 25841 ft | 442 kts | 105° |
| 2026-05-06 15:59 | 40.90463 | -111.35804 | 26320 ft | 432 kts | 94° |
| 2026-05-06 16:00 | 40.89969 | -111.31916 | 26783 ft | 430 kts | 90° |
| 2026-05-06 16:00 | 40.89522 | -111.28003 | 27265 ft | 432 kts | 90° |
| 2026-05-06 16:00 | 40.89064 | -111.24066 | 27750 ft | 434 kts | 90° |
| 2026-05-06 16:00 | 40.88598 | -111.20110 | 28185 ft | 437 kts | 90° |
| 2026-05-06 16:01 | 40.88126 | -111.16128 | 28616 ft | 439 kts | 90° |
| 2026-05-06 16:01 | 40.87650 | -111.12129 | 29018 ft | 442 kts | 90° |
| 2026-05-06 16:01 | 40.87168 | -111.08109 | 29442 ft | 445 kts | 90° |
| 2026-05-06 16:01 | 40.86681 | -111.04068 | 29849 ft | 447 kts | 89° |
| 2026-05-06 16:02 | 40.86191 | -110.99998 | 30216 ft | 449 kts | 89° |
| 2026-05-06 16:02 | 40.85699 | -110.95912 | 30567 ft | 452 kts | 89° |
| 2026-05-06 16:02 | 40.85201 | -110.91808 | 30925 ft | 453 kts | 89° |
| 2026-05-06 16:02 | 40.84700 | -110.87694 | 31289 ft | 455 kts | 89° |
| 2026-05-06 16:03 | 40.84196 | -110.83577 | 31730 ft | 454 kts | 89° |
| 2026-05-06 16:03 | 40.83693 | -110.79471 | 32196 ft | 452 kts | 89° |
| 2026-05-06 16:03 | 40.83192 | -110.75385 | 32621 ft | 450 kts | 89° |
| 2026-05-06 16:03 | 40.82691 | -110.71312 | 33078 ft | 449 kts | 89° |
| 2026-05-06 16:04 | 40.82190 | -110.67250 | 33494 ft | 448 kts | 89° |
| 2026-05-06 16:04 | 40.81688 | -110.63203 | 33966 ft | 445 kts | 88° |
| 2026-05-06 16:04 | 40.81187 | -110.59174 | 34378 ft | 444 kts | 88° |
| 2026-05-06 16:04 | 40.80688 | -110.55156 | 34691 ft | 444 kts | 89° |
| 2026-05-06 16:05 | 40.80188 | -110.51135 | 34958 ft | 445 kts | 89° |
| 2026-05-06 16:05 | 40.79692 | -110.47158 | 35118 ft | 446 kts | 89° |
| 2026-05-06 16:05 | 40.78679 | -110.39109 | 35123 ft | 443 kts | 89° |
| 2026-05-06 16:06 | 40.77665 | -110.31073 | 35129 ft | 445 kts | 89° |
| 2026-05-06 16:06 | 40.76642 | -110.23036 | 35133 ft | 444 kts | 89° |
| 2026-05-06 16:07 | 40.75615 | -110.14990 | 35126 ft | 445 kts | 89° |
| 2026-05-06 16:07 | 40.74582 | -110.06931 | 35139 ft | 447 kts | 90° |
| 2026-05-06 16:08 | 40.73893 | -109.98862 | 35142 ft | 442 kts | 85° |
| 2026-05-06 16:08 | 40.73369 | -109.90821 | 35133 ft | 440 kts | 85° |
| 2026-05-06 16:09 | 40.72834 | -109.82786 | 35130 ft | 441 kts | 85° |
| 2026-05-06 16:09 | 40.72289 | -109.74719 | 35144 ft | 442 kts | 85° |
| 2026-05-06 16:10 | 40.71734 | -109.66638 | 35142 ft | 443 kts | 86° |
| 2026-05-06 16:10 | 40.71171 | -109.58552 | 35146 ft | 443 kts | 86° |
| 2026-05-06 16:11 | 40.70604 | -109.50457 | 35142 ft | 444 kts | 86° |
| 2026-05-06 16:11 | 40.70029 | -109.42334 | 35143 ft | 445 kts | 86° |
| 2026-05-06 16:12 | 40.69447 | -109.34201 | 35139 ft | 446 kts | 87° |
| 2026-05-06 16:12 | 40.68859 | -109.26046 | 35139 ft | 448 kts | 87° |
| 2026-05-06 16:13 | 40.68263 | -109.17864 | 35138 ft | 450 kts | 88° |
| 2026-05-06 16:13 | 40.67657 | -109.09648 | 35146 ft | 451 kts | 88° |
| 2026-05-06 16:14 | 40.67058 | -109.01418 | 35143 ft | 452 kts | 87° |
| 2026-05-06 16:14 | 40.66741 | -108.93196 | 35140 ft | 442 kts | 77° |
| 2026-05-06 16:15 | 40.67416 | -108.85156 | 35139 ft | 442 kts | 75° |
| 2026-05-06 16:15 | 40.68163 | -108.77141 | 35152 ft | 445 kts | 76° |
| 2026-05-06 16:16 | 40.68817 | -108.69011 | 35148 ft | 447 kts | 77° |
| 2026-05-06 16:16 | 40.69432 | -108.60839 | 35147 ft | 449 kts | 77° |
| 2026-05-06 16:17 | 40.70037 | -108.52648 | 35135 ft | 450 kts | 78° |
| 2026-05-06 16:17 | 40.70639 | -108.44434 | 35131 ft | 451 kts | 78° |
| 2026-05-06 16:18 | 40.71136 | -108.37592 | 35121 ft | 452 kts | 78° |
| 2026-05-06 16:18 | 40.71732 | -108.29343 | 35117 ft | 453 kts | 78° |
| 2026-05-06 16:19 | 40.72325 | -108.21068 | 35108 ft | 454 kts | 79° |
| 2026-05-06 16:19 | 40.72910 | -108.12772 | 35103 ft | 455 kts | 79° |
| 2026-05-06 16:20 | 40.73490 | -108.04475 | 34877 ft | 453 kts | 79° |
| 2026-05-06 16:20 | 40.73774 | -108.00351 | 34467 ft | 450 kts | 79° |
| 2026-05-06 16:20 | 40.74055 | -107.96249 | 33934 ft | 448 kts | 79° |
| 2026-05-06 16:21 | 40.74335 | -107.92173 | 33251 ft | 446 kts | 78° |
| 2026-05-06 16:21 | 40.74614 | -107.88103 | 32543 ft | 445 kts | 78° |
| 2026-05-06 16:21 | 40.74888 | -107.84057 | 32187 ft | 441 kts | 78° |
| 2026-05-06 16:21 | 40.75162 | -107.80010 | 32092 ft | 447 kts | 78° |
| 2026-05-06 16:22 | 40.75719 | -107.71766 | 32088 ft | 452 kts | 79° |
| 2026-05-06 16:22 | 40.76266 | -107.63509 | 32098 ft | 452 kts | 79° |
| 2026-05-06 16:23 | 40.76813 | -107.55218 | 32111 ft | 455 kts | 79° |
| 2026-05-06 16:23 | 40.77351 | -107.46900 | 32103 ft | 455 kts | 80° |
| 2026-05-06 16:24 | 40.77884 | -107.38572 | 32086 ft | 455 kts | 80° |
| 2026-05-06 16:24 | 40.78412 | -107.30231 | 32081 ft | 457 kts | 80° |
| 2026-05-06 16:25 | 40.78939 | -107.21859 | 32066 ft | 458 kts | 81° |
| 2026-05-06 16:25 | 40.79461 | -107.13468 | 32070 ft | 459 kts | 81° |
| 2026-05-06 16:26 | 40.79975 | -107.05042 | 31984 ft | 463 kts | 81° |
| 2026-05-06 16:26 | 40.80233 | -107.00794 | 31657 ft | 466 kts | 82° |
| 2026-05-06 16:26 | 40.80490 | -106.96544 | 31291 ft | 464 kts | 82° |
| 2026-05-06 16:27 | 40.80745 | -106.92310 | 30922 ft | 463 kts | 82° |
| 2026-05-06 16:27 | 40.80997 | -106.88076 | 30564 ft | 463 kts | 82° |
| 2026-05-06 16:27 | 40.81245 | -106.83852 | 30215 ft | 461 kts | 82° |
| 2026-05-06 16:27 | 40.81487 | -106.79708 | 29751 ft | 457 kts | 82° |
| 2026-05-06 16:28 | 40.81735 | -106.75491 | 29272 ft | 453 kts | 82° |
| 2026-05-06 16:28 | 40.81976 | -106.71353 | 28804 ft | 452 kts | 82° |
| 2026-05-06 16:28 | 40.82214 | -106.67231 | 28342 ft | 449 kts | 83° |
| 2026-05-06 16:28 | 40.82449 | -106.63188 | 27899 ft | 446 kts | 83° |
| 2026-05-06 16:29 | 40.82684 | -106.59116 | 27448 ft | 444 kts | 83° |
| 2026-05-06 16:29 | 40.82915 | -106.55057 | 27015 ft | 443 kts | 83° |
| 2026-05-06 16:29 | 40.83142 | -106.51015 | 26586 ft | 440 kts | 84° |
| 2026-05-06 16:29 | 40.83367 | -106.46995 | 26160 ft | 438 kts | 84° |
| 2026-05-06 16:30 | 40.83592 | -106.42947 | 25736 ft | 435 kts | 84° |
| 2026-05-06 16:30 | 40.83738 | -106.40312 | 25462 ft | 434 kts | 84° |
| 2026-05-06 16:30 | 40.84024 | -106.35104 | 25176 ft | 421 kts | 84° |
| 2026-05-06 16:30 | 40.84231 | -106.31298 | 25147 ft | 413 kts | 84° |
| 2026-05-06 16:31 | 40.84283 | -106.27472 | 25143 ft | 422 kts | 94° |
| 2026-05-06 16:31 | 40.83790 | -106.23654 | 25141 ft | 423 kts | 105° |
| 2026-05-06 16:31 | 40.82741 | -106.20038 | 25145 ft | 422 kts | 116° |
| 2026-05-06 16:31 | 40.81483 | -106.16538 | 25141 ft | 423 kts | 115° |
| 2026-05-06 16:32 | 40.80233 | -106.13024 | 25142 ft | 423 kts | 115° |
| 2026-05-06 16:32 | 40.78988 | -106.09514 | 25147 ft | 423 kts | 115° |
| 2026-05-06 16:32 | 40.77740 | -106.06003 | 25145 ft | 423 kts | 116° |
| 2026-05-06 16:32 | 40.76492 | -106.02493 | 25140 ft | 423 kts | 116° |
| 2026-05-06 16:33 | 40.75241 | -105.98983 | 25141 ft | 423 kts | 116° |
| 2026-05-06 16:33 | 40.73989 | -105.95465 | 25147 ft | 424 kts | 116° |
| 2026-05-06 16:33 | 40.72619 | -105.92029 | 25144 ft | 423 kts | 124° |
| 2026-05-06 16:34 | 40.69874 | -105.85063 | 25150 ft | 427 kts | 114° |
| 2026-05-06 16:34 | 40.68742 | -105.81460 | 25127 ft | 426 kts | 114° |
| 2026-05-06 16:34 | 40.67561 | -105.77827 | 24971 ft | 433 kts | 115° |
| 2026-05-06 16:34 | 40.66338 | -105.74240 | 24876 ft | 426 kts | 116° |
| 2026-05-06 16:35 | 40.65098 | -105.70718 | 24628 ft | 421 kts | 117° |
| 2026-05-06 16:35 | 40.63849 | -105.67233 | 24396 ft | 423 kts | 117° |
| 2026-05-06 16:35 | 40.62585 | -105.63734 | 24161 ft | 423 kts | 117° |
| 2026-05-06 16:35 | 40.61318 | -105.60240 | 23936 ft | 422 kts | 117° |
| 2026-05-06 16:36 | 40.60053 | -105.56753 | 23671 ft | 422 kts | 118° |
| 2026-05-06 16:36 | 40.58786 | -105.53267 | 23131 ft | 422 kts | 118° |
| 2026-05-06 16:36 | 40.57526 | -105.49800 | 22599 ft | 418 kts | 118° |
| 2026-05-06 16:36 | 40.56282 | -105.46376 | 22171 ft | 411 kts | 118° |
| 2026-05-06 16:37 | 40.55058 | -105.43010 | 21904 ft | 407 kts | 118° |
| 2026-05-06 16:37 | 40.53842 | -105.39675 | 21731 ft | 402 kts | 118° |
| 2026-05-06 16:37 | 40.52637 | -105.36375 | 21259 ft | 400 kts | 118° |
| 2026-05-06 16:37 | 40.51436 | -105.33093 | 20792 ft | 396 kts | 118° |
| 2026-05-06 16:38 | 40.50246 | -105.29844 | 20322 ft | 393 kts | 118° |
| 2026-05-06 16:38 | 40.49067 | -105.26626 | 19878 ft | 389 kts | 117° |
| 2026-05-06 16:38 | 40.47872 | -105.23471 | 19551 ft | 382 kts | 121° |
| 2026-05-06 16:38 | 40.46658 | -105.20479 | 19438 ft | 369 kts | 122° |
| 2026-05-06 16:39 | 40.45189 | -105.17806 | 19249 ft | 355 kts | 135° |
| 2026-05-06 16:39 | 40.43369 | -105.15698 | 18995 ft | 343 kts | 148° |
| 2026-05-06 16:39 | 40.41443 | -105.13885 | 18798 ft | 340 kts | 148° |
| 2026-05-06 16:39 | 40.39511 | -105.12078 | 18606 ft | 341 kts | 148° |
| 2026-05-06 16:40 | 40.37582 | -105.10280 | 18357 ft | 341 kts | 148° |
| 2026-05-06 16:40 | 40.35643 | -105.08479 | 18001 ft | 338 kts | 148° |
| 2026-05-06 16:40 | 40.33743 | -105.06715 | 17809 ft | 334 kts | 148° |
| 2026-05-06 16:40 | 40.31846 | -105.04956 | 17631 ft | 334 kts | 148° |
| 2026-05-06 16:41 | 40.29949 | -105.03199 | 17419 ft | 334 kts | 148° |
| 2026-05-06 16:41 | 40.28057 | -105.01446 | 17257 ft | 332 kts | 148° |
| 2026-05-06 16:41 | 40.26174 | -104.99704 | 17061 ft | 331 kts | 148° |
| 2026-05-06 16:41 | 40.24301 | -104.97970 | 16881 ft | 329 kts | 148° |
| 2026-05-06 16:42 | 40.22430 | -104.96244 | 16686 ft | 329 kts | 148° |
| 2026-05-06 16:42 | 40.20567 | -104.94523 | 16506 ft | 328 kts | 148° |
| 2026-05-06 16:42 | 40.18706 | -104.92805 | 16343 ft | 326 kts | 147° |
| 2026-05-06 16:42 | 40.16930 | -104.90987 | 16135 ft | 322 kts | 142° |
| 2026-05-06 16:43 | 40.15196 | -104.89140 | 15929 ft | 321 kts | 142° |
| 2026-05-06 16:43 | 40.13621 | -104.87466 | 15760 ft | 321 kts | 142° |
| 2026-05-06 16:43 | 40.11919 | -104.85659 | 15580 ft | 321 kts | 142° |
| 2026-05-06 16:43 | 40.10190 | -104.83825 | 15400 ft | 319 kts | 142° |
| 2026-05-06 16:44 | 40.08465 | -104.82000 | 15225 ft | 318 kts | 142° |
| 2026-05-06 16:44 | 40.06803 | -104.80106 | 15040 ft | 318 kts | 135° |
| 2026-05-06 16:44 | 40.05395 | -104.77885 | 14822 ft | 318 kts | 125° |
| 2026-05-06 16:44 | 40.04122 | -104.75535 | 14585 ft | 318 kts | 126° |
| 2026-05-06 16:45 | 40.02852 | -104.73207 | 14350 ft | 314 kts | 125° |
| 2026-05-06 16:45 | 40.01581 | -104.70882 | 14121 ft | 313 kts | 125° |
| 2026-05-06 16:45 | 40.00315 | -104.68590 | 13879 ft | 312 kts | 126° |
| 2026-05-06 16:45 | 39.99074 | -104.66329 | 13653 ft | 310 kts | 126° |
| 2026-05-06 16:46 | 39.97824 | -104.64066 | 13416 ft | 309 kts | 126° |
| 2026-05-06 16:46 | 39.96578 | -104.61791 | 13202 ft | 307 kts | 125° |
| 2026-05-06 16:46 | 39.95337 | -104.59516 | 12982 ft | 308 kts | 126° |
| 2026-05-06 16:46 | 39.94100 | -104.57270 | 12754 ft | 300 kts | 126° |
| 2026-05-06 16:47 | 39.92872 | -104.55037 | 12537 ft | 306 kts | 125° |
| 2026-05-06 16:47 | 39.91640 | -104.52796 | 12316 ft | 302 kts | 126° |
| 2026-05-06 16:47 | 39.90207 | -104.50836 | 12116 ft | 296 kts | 146° |
| 2026-05-06 16:47 | 39.88326 | -104.49808 | 11738 ft | 293 kts | 172° |
| 2026-05-06 16:48 | 39.86298 | -104.49692 | 11268 ft | 293 kts | 182° |
| 2026-05-06 16:48 | 39.84295 | -104.49810 | 11051 ft | 282 kts | 185° |
| 2026-05-06 16:48 | 39.82403 | -104.49945 | 11004 ft | 260 kts | 183° |
| 2026-05-06 16:48 | 39.80663 | -104.50037 | 11007 ft | 242 kts | 183° |
| 2026-05-06 16:49 | 39.78959 | -104.50107 | 11006 ft | 244 kts | 181° |
| 2026-05-06 16:49 | 39.77255 | -104.50135 | 10892 ft | 244 kts | 180° |
| 2026-05-06 16:49 | 39.75565 | -104.50146 | 10653 ft | 242 kts | 180° |
| 2026-05-06 16:49 | 39.73882 | -104.50176 | 10310 ft | 241 kts | 181° |
| 2026-05-06 16:50 | 39.72208 | -104.50196 | 9923 ft | 239 kts | 180° |
| 2026-05-06 16:50 | 39.70543 | -104.50214 | 9463 ft | 240 kts | 179° |
| 2026-05-06 16:50 | 39.68867 | -104.50230 | 9028 ft | 241 kts | 181° |
| 2026-05-06 16:50 | 39.67762 | -104.50247 | 8774 ft | 240 kts | 180° |
| 2026-05-06 16:51 | 39.65527 | -104.50283 | 8242 ft | 242 kts | 185° |
| 2026-05-06 16:51 | 39.63980 | -104.51017 | 8024 ft | 236 kts | 218° |
| 2026-05-06 16:51 | 39.62959 | -104.52677 | 7996 ft | 241 kts | 250° |
| 2026-05-06 16:51 | 39.62658 | -104.54783 | 7991 ft | 239 kts | 266° |
| 2026-05-06 16:52 | 39.62535 | -104.56922 | 7990 ft | 236 kts | 267° |
| 2026-05-06 16:52 | 39.62606 | -104.59037 | 7982 ft | 234 kts | 289° |